Time;durP1;ratioP1;P1;durP2;ratioP2;P2;SDS_P1;SDS_P2;PMS_P1;PMS_P2;Temp;Humidity;BMP_temperature;BMP_pressure;BME280_temperature;BME280_humidity;BME280_pressure;Samples;Min_cycle;Max_cycle;Signal;HPM_P1;HPM_P2
2023/01/11 00:01:50;;;;;;;7.65;6.85;;;9.20;99.90;;;;;;5025426;28;20385;-77
2023/01/11 00:04:17;;;;;;;7.15;5.93;;;9.20;99.90;;;;;;5043865;28;20037;-76
2023/01/11 00:06:44;;;;;;;9.98;6.90;;;9.20;99.90;;;;;;5041342;28;20499;-76
2023/01/11 00:09:11;;;;;;;8.32;7.07;;;9.20;99.90;;;;;;5043509;28;20503;-76
2023/01/11 00:11:37;;;;;;;8.98;7.45;;;9.30;99.90;;;;;;5044303;28;20045;-75
2023/01/11 00:14:04;;;;;;;9.23;7.38;;;9.30;99.90;;;;;;5042286;28;20116;-76
2023/01/11 00:16:30;;;;;;;8.82;7.05;;;9.30;99.90;;;;;;5045427;28;20048;-77
2023/01/11 00:18:56;;;;;;;9.30;7.47;;;9.30;99.90;;;;;;5046565;28;20041;-77
2023/01/11 00:21:22;;;;;;;10.07;6.95;;;9.40;99.90;;;;;;5044837;28;20111;-76
2023/01/11 00:23:49;;;;;;;9.93;8.00;;;9.40;99.90;;;;;;5043299;28;20041;-78
2023/01/11 00:26:15;;;;;;;10.88;7.40;;;9.40;99.90;;;;;;5045090;28;20409;-78
2023/01/11 00:28:42;;;;;;;7.18;6.45;;;9.40;99.90;;;;;;5044893;28;20033;-76
2023/01/11 00:31:08;;;;;;;9.77;7.05;;;9.40;99.90;;;;;;5027702;28;20045;-77
2023/01/11 00:33:34;;;;;;;8.73;7.75;;;9.50;99.90;;;;;;5025755;28;20055;-75
2023/01/11 00:36:01;;;;;;;11.70;8.98;;;9.50;99.90;;;;;;5046247;28;20044;-76
2023/01/11 00:38:50;;;;;;;10.30;7.22;;;9.50;99.90;;;;;;5028070;28;20029;-76
2023/01/11 00:49:33;;;;;;;8.57;6.70;;;9.60;99.90;;;;;;5042234;28;20052;-77
2023/01/11 00:51:59;;;;;;;10.15;7.53;;;9.60;99.90;;;;;;5041481;28;20045;-77
2023/01/11 00:54:26;;;;;;;12.80;7.97;;;9.60;99.90;;;;;;5022449;28;20040;-76
2023/01/11 00:56:52;;;;;;;9.95;7.57;;;9.70;99.90;;;;;;5027095;28;20041;-76
2023/01/11 00:59:18;;;;;;;9.20;7.30;;;9.70;99.90;;;;;;5009649;28;20983;-76
2023/01/11 01:01:44;;;;;;;9.15;6.60;;;9.70;99.90;;;;;;5025141;28;20044;-76
2023/01/11 01:04:11;;;;;;;11.80;7.18;;;9.70;99.90;;;;;;5040791;28;20039;-77
2023/01/11 01:06:37;;;;;;;11.98;8.52;;;9.70;99.90;;;;;;5011204;28;20546;-77
2023/01/11 01:09:03;;;;;;;10.90;7.18;;;9.80;99.90;;;;;;5042461;28;20148;-76
2023/01/11 01:11:30;;;;;;;10.82;8.23;;;9.80;99.90;;;;;;5044010;28;20040;-78
2023/01/11 01:16:41;;;;;;;10.15;7.25;;;9.80;99.90;;;;;;5044340;28;20040;-77
2023/01/11 01:19:08;;;;;;;8.40;6.80;;;9.80;99.90;;;;;;5026742;28;20047;-76
2023/01/11 01:21:36;;;;;;;7.53;6.22;;;9.80;99.90;;;;;;5043780;28;20131;-75
2023/01/11 01:24:02;;;;;;;10.02;8.70;;;9.80;99.90;;;;;;5039485;28;20251;-75
2023/01/11 01:26:28;;;;;;;9.05;6.82;;;9.80;99.90;;;;;;5046341;28;20036;-78
2023/01/11 01:28:55;;;;;;;10.60;6.55;;;9.90;99.90;;;;;;5043969;28;20041;-76
2023/01/11 01:31:21;;;;;;;8.10;6.78;;;9.90;99.90;;;;;;5043568;28;20032;-77
2023/01/11 01:33:47;;;;;;;10.23;6.45;;;9.90;99.90;;;;;;5040151;28;20052;-75
2023/01/11 01:36:13;;;;;;;11.75;6.97;;;9.90;99.90;;;;;;5011285;28;20037;-77
2023/01/11 01:38:40;;;;;;;9.48;6.68;;;9.90;99.90;;;;;;5026530;28;20033;-77
2023/01/11 01:41:06;;;;;;;10.35;4.72;;;9.90;99.90;;;;;;5042432;28;20029;-76
2023/01/11 01:43:48;;;;;;;9.55;7.13;;;9.90;99.90;;;;;;5039846;28;20029;-77
2023/01/11 01:46:16;;;;;;;8.18;6.28;;;9.90;99.90;;;;;;5042424;28;20059;-77
2023/01/11 01:48:47;;;;;;;8.20;5.55;;;9.90;99.90;;;;;;5045026;28;20047;-78
2023/01/11 01:51:20;;;;;;;6.63;5.20;;;10.00;99.90;;;;;;5026273;28;20041;-78
2023/01/11 01:53:51;;;;;;;7.05;5.50;;;10.00;99.90;;;;;;5040914;28;20048;-77
2023/01/11 01:56:30;;;;;;;6.05;4.97;;;10.00;99.90;;;;;;5042387;28;20036;-76
2023/01/11 01:59:01;;;;;;;5.70;4.28;;;10.00;99.90;;;;;;5043373;28;20037;-78
2023/01/11 02:04:24;;;;;;;5.95;4.50;;;10.10;99.90;;;;;;5033022;28;20059;-78
2023/01/11 02:07:03;;;;;;;5.60;4.45;;;10.00;99.90;;;;;;5036844;28;20036;-77
2023/01/11 02:09:55;;;;;;;5.05;4.28;;;10.10;99.90;;;;;;5035882;28;20472;-77
2023/01/11 02:12:24;;;;;;;8.10;5.47;;;10.10;99.90;;;;;;5036513;28;20068;-77
2023/01/11 02:14:52;;;;;;;5.18;3.17;;;10.20;99.90;;;;;;5020677;28;20045;-78
2023/01/11 02:17:18;;;;;;;5.05;4.10;;;10.10;99.90;;;;;;5040602;28;20037;-77
2023/01/11 02:20:06;;;;;;;4.88;3.55;;;10.20;99.90;;;;;;5038781;28;20045;-78
2023/01/11 02:22:38;;;;;;;3.90;3.47;;;10.20;99.90;;;;;;5037011;28;20048;-78
2023/01/11 02:25:04;;;;;;;3.35;3.05;;;10.20;99.90;;;;;;5034555;28;20568;-78
2023/01/11 02:28:00;;;;;;;3.40;2.90;;;10.20;99.90;;;;;;5008013;28;20060;-79
2023/01/11 02:30:39;;;;;;;4.80;2.83;;;10.20;99.90;;;;;;5040872;28;20043;-78
2023/01/11 02:33:13;;;;;;;4.95;3.60;;;10.30;99.90;;;;;;5022393;28;20068;-78
2023/01/11 02:35:39;;;;;;;4.40;3.63;;;10.30;99.90;;;;;;5025301;28;20041;-76
2023/01/11 02:38:14;;;;;;;4.25;2.83;;;10.30;99.90;;;;;;5041786;28;20037;-78
2023/01/11 02:40:51;;;;;;;3.03;2.72;;;10.30;99.90;;;;;;5042582;28;20435;-79
2023/01/11 02:46:09;;;;;;;4.22;3.75;;;10.30;99.90;;;;;;5043422;28;20492;-77
2023/01/11 02:49:13;;;;;;;5.68;4.40;;;10.40;99.90;;;;;;5025348;28;20029;-77
2023/01/11 02:52:16;;;;;;;5.93;3.58;;;10.40;99.90;;;;;;5040997;28;20602;-77
2023/01/11 02:54:46;;;;;;;2.70;2.22;;;10.40;99.90;;;;;;5039273;28;20427;-78
2023/01/11 02:57:15;;;;;;;3.80;3.05;;;10.40;99.90;;;;;;5038750;28;20040;-78
2023/01/11 02:59:42;;;;;;;3.20;2.58;;;10.40;99.90;;;;;;5024767;28;20450;-79
2023/01/11 03:02:12;;;;;;;4.30;3.72;;;10.40;99.90;;;;;;5038150;28;20028;-77
2023/01/11 03:04:38;;;;;;;6.45;4.90;;;10.40;99.90;;;;;;5035373;28;20033;-77
2023/01/11 03:07:14;;;;;;;4.13;3.75;;;10.40;99.90;;;;;;5035685;28;20418;-77
2023/01/11 03:10:24;;;;;;;4.03;2.35;;;10.40;99.90;;;;;;5020833;28;20508;-77
2023/01/11 03:13:08;;;;;;;4.55;4.05;;;10.50;99.90;;;;;;5057351;28;20044;-76
2023/01/11 03:15:54;;;;;;;4.70;4.30;;;10.50;99.90;;;;;;5042376;28;20040;-76
2023/01/11 03:18:40;;;;;;;3.50;3.20;;;10.50;99.90;;;;;;5029006;28;20040;-78
2023/01/11 03:21:22;;;;;;;3.47;3.17;;;10.50;99.90;;;;;;5029336;28;20052;-78
2023/01/11 03:23:54;;;;;;;7.45;5.25;;;10.50;99.90;;;;;;5047861;28;20041;-76
2023/01/11 03:26:40;;;;;;;5.65;5.15;;;10.50;99.90;;;;;;5020295;28;20041;-77
2023/01/11 03:29:27;;;;;;;6.53;5.28;;;10.50;99.90;;;;;;5046675;28;20041;-77
2023/01/11 03:32:11;;;;;;;4.05;3.65;;;10.50;99.90;;;;;;5063065;28;20037;-78
2023/01/11 03:34:56;;;;;;;5.25;4.70;;;10.50;99.90;;;;;;5026632;28;20044;-77
2023/01/11 03:37:38;;;;;;;4.70;3.85;;;10.60;99.90;;;;;;5046736;28;20037;-76
2023/01/11 03:40:19;;;;;;;7.90;6.70;;;10.60;99.90;;;;;;5029688;28;20059;-77
2023/01/11 03:45:55;;;;;;;4.05;3.72;;;10.70;99.90;;;;;;5031353;28;20052;-77
2023/01/11 03:48:31;;;;;;;5.60;4.28;;;10.70;99.90;;;;;;5029991;28;20033;-77
2023/01/11 03:51:00;;;;;;;6.03;5.28;;;10.70;99.90;;;;;;5045714;28;20430;-78
2023/01/11 03:53:30;;;;;;;6.10;5.15;;;10.70;99.90;;;;;;5025662;28;20029;-78
2023/01/11 03:55:58;;;;;;;5.82;5.32;;;10.70;99.90;;;;;;5027251;28;20037;-77
2023/01/11 03:58:26;;;;;;;5.28;4.78;;;10.70;99.90;;;;;;5044522;28;20048;-79
2023/01/11 04:00:57;;;;;;;6.40;5.25;;;10.70;99.90;;;;;;5045355;28;20040;-78
2023/01/11 04:03:23;;;;;;;4.70;4.30;;;10.80;99.90;;;;;;5040944;28;20044;-78
2023/01/11 04:05:52;;;;;;;8.65;6.80;;;10.80;99.90;;;;;;5026475;28;20400;-77
2023/01/11 04:08:19;;;;;;;5.10;4.60;;;10.80;99.90;;;;;;5038294;28;20368;-77
2023/01/11 04:10:45;;;;;;;4.70;4.13;;;10.80;99.90;;;;;;5040464;28;20574;-79
2023/01/11 04:13:11;;;;;;;4.55;3.92;;;10.80;99.90;;;;;;5040633;28;20420;-78
2023/01/11 04:15:38;;;;;;;7.55;5.28;;;10.80;99.90;;;;;;5025443;28;20049;-80
2023/01/11 04:18:04;;;;;;;5.75;4.57;;;10.80;99.90;;;;;;5041123;28;20060;-78
2023/01/11 04:20:36;;;;;;;5.90;5.25;;;10.90;99.90;;;;;;5026871;28;20048;-79
2023/01/11 04:23:04;;;;;;;7.40;5.18;;;10.90;99.90;;;;;;5020280;28;20064;-80
2023/01/11 04:25:30;;;;;;;3.70;3.40;;;10.90;99.90;;;;;;5026675;28;20048;-81
2023/01/11 04:27:57;;;;;;;3.90;3.60;;;10.90;99.90;;;;;;5009315;28;20104;-79
2023/01/11 04:30:24;;;;;;;4.22;3.65;;;10.90;99.90;;;;;;5043157;28;20636;-80
2023/01/11 04:32:50;;;;;;;5.53;4.95;;;11.00;99.90;;;;;;5025529;28;20468;-77
2023/01/11 04:35:18;;;;;;;3.95;3.60;;;11.00;99.90;;;;;;5041433;28;20037;-78
2023/01/11 04:37:44;;;;;;;7.72;6.93;;;11.00;99.90;;;;;;5044370;28;20337;-80
2023/01/11 04:40:11;;;;;;;6.32;5.63;;;11.00;99.90;;;;;;5041523;28;20060;-77
2023/01/11 04:42:37;;;;;;;5.60;5.10;;;11.00;99.90;;;;;;5042335;28;20048;-78
2023/01/11 04:45:04;;;;;;;6.45;5.50;;;11.00;99.90;;;;;;5023086;28;20625;-78
2023/01/11 04:47:31;;;;;;;4.70;4.18;;;11.00;99.90;;;;;;5044765;28;20037;-80
2023/01/11 04:49:57;;;;;;;5.80;5.20;;;11.00;99.90;;;;;;5026604;28;20044;-79
2023/01/11 04:52:24;;;;;;;6.72;4.95;;;11.00;99.90;;;;;;5044547;28;20039;-80
2023/01/11 04:54:51;;;;;;;8.90;5.95;;;11.10;99.90;;;;;;5041496;28;20045;-80
2023/01/11 04:57:17;;;;;;;7.95;6.75;;;11.00;99.90;;;;;;5008707;28;20372;-79
2023/01/11 04:59:47;;;;;;;8.68;6.05;;;11.10;99.90;;;;;;5043141;28;20028;-80
2023/01/11 05:02:15;;;;;;;8.30;7.07;;;11.10;99.90;;;;;;5025681;28;20029;-79
2023/01/11 05:04:41;;;;;;;9.50;8.18;;;11.10;99.90;;;;;;5009663;28;20056;-78
2023/01/11 05:07:08;;;;;;;9.43;7.68;;;11.10;99.90;;;;;;5041349;28;20043;-78
2023/01/11 05:09:35;;;;;;;10.43;7.50;;;11.10;99.90;;;;;;5041837;28;20025;-78
2023/01/11 05:12:01;;;;;;;11.90;8.35;;;11.20;99.90;;;;;;5041768;28;20032;-76
2023/01/11 05:14:27;;;;;;;8.05;7.25;;;11.20;99.90;;;;;;5039503;28;20367;-78
2023/01/11 05:16:54;;;;;;;9.70;7.90;;;11.20;99.90;;;;;;5044435;28;20041;-78
2023/01/11 05:19:20;;;;;;;8.95;7.78;;;11.20;99.90;;;;;;5045134;28;20231;-77
2023/01/11 05:21:46;;;;;;;8.88;7.82;;;11.20;99.90;;;;;;5044333;28;20385;-77
2023/01/11 05:24:15;;;;;;;11.20;9.18;;;11.20;99.90;;;;;;5041345;28;20037;-77
2023/01/11 05:26:43;;;;;;;12.20;8.10;;;11.20;99.90;;;;;;5044777;28;20029;-76
2023/01/11 05:29:12;;;;;;;13.45;10.02;;;11.20;99.90;;;;;;5044089;28;20029;-77
2023/01/11 05:31:39;;;;;;;14.68;9.95;;;11.20;99.90;;;;;;5043643;28;20032;-77
2023/01/11 05:34:06;;;;;;;16.77;11.60;;;11.20;99.90;;;;;;5040828;28;20435;-77
2023/01/11 05:36:34;;;;;;;13.18;10.68;;;11.20;99.90;;;;;;5010909;28;20457;-78
2023/01/11 05:39:00;;;;;;;15.70;12.23;;;11.20;99.90;;;;;;5009085;28;20044;-77
2023/01/11 05:41:27;;;;;;;16.20;11.63;;;11.20;99.90;;;;;;5043460;28;20468;-77
2023/01/11 05:46:41;;;;;;;13.60;10.13;;;11.20;99.90;;;;;;5043055;28;20409;-78
2023/01/11 05:49:09;;;;;;;17.05;11.98;;;11.20;99.90;;;;;;5026993;28;20472;-78
2023/01/11 05:51:37;;;;;;;13.95;10.43;;;11.20;99.90;;;;;;5026715;28;20029;-77
2023/01/11 05:54:05;;;;;;;16.10;10.55;;;11.10;99.90;;;;;;5040333;28;20037;-76
2023/01/11 05:56:32;;;;;;;18.70;10.30;;;11.10;99.90;;;;;;5026975;28;20037;-77
2023/01/11 05:58:58;;;;;;;20.27;11.88;;;11.20;99.90;;;;;;5026981;28;20052;-77
2023/01/11 06:01:25;;;;;;;24.52;12.25;;;11.10;99.90;;;;;;5027148;28;20024;-75
2023/01/11 06:03:51;;;;;;;17.40;10.82;;;11.10;99.90;;;;;;5023870;28;20040;-77
2023/01/11 06:06:19;;;;;;;18.55;10.90;;;11.10;99.90;;;;;;5026659;28;20432;-77
2023/01/11 06:08:45;;;;;;;13.93;8.75;;;11.20;99.90;;;;;;5027031;28;20040;-75
2023/01/11 06:11:11;;;;;;;18.67;10.05;;;11.10;99.90;;;;;;5043037;28;20033;-77
2023/01/11 06:13:38;;;;;;;18.42;9.93;;;11.10;99.90;;;;;;5042070;28;20037;-77
2023/01/11 06:16:14;;;;;;;23.33;12.68;;;11.10;99.90;;;;;;5044688;28;20033;-78
2023/01/11 06:18:47;;;;;;;19.80;10.65;;;11.10;99.90;;;;;;5044473;28;20033;-76
2023/01/11 06:21:14;;;;;;;23.83;9.55;;;11.00;99.90;;;;;;5026519;28;20060;-76
2023/01/11 06:23:44;;;;;;;27.90;10.85;;;11.00;99.90;;;;;;5007196;28;20057;-76
2023/01/11 06:26:13;;;;;;;17.17;8.63;;;11.00;99.90;;;;;;5044336;28;20514;-77
2023/01/11 06:28:40;;;;;;;23.30;10.02;;;10.90;99.90;;;;;;5026557;28;20609;-77
2023/01/11 06:31:06;;;;;;;23.92;8.15;;;10.90;99.90;;;;;;5010413;28;20418;-78
2023/01/11 06:33:33;;;;;;;20.23;10.00;;;10.90;99.90;;;;;;5040561;28;20055;-77
2023/01/11 06:36:06;;;;;;;17.83;9.00;;;10.90;99.90;;;;;;5026139;28;20510;-78
2023/01/11 06:38:34;;;;;;;18.98;7.35;;;10.90;99.90;;;;;;5043406;28;20039;-77
2023/01/11 06:41:02;;;;;;;27.38;11.38;;;10.90;99.90;;;;;;5004283;28;20037;-79
2023/01/11 06:43:29;;;;;;;21.38;9.77;;;10.90;99.90;;;;;;5015462;28;20482;-80
2023/01/11 06:45:57;;;;;;;30.10;10.23;;;10.90;99.90;;;;;;5024523;28;20563;-79
2023/01/11 06:48:23;;;;;;;28.05;8.70;;;10.80;99.90;;;;;;5021259;28;20487;-81
2023/01/11 06:50:52;;;;;;;29.20;8.35;;;10.80;99.90;;;;;;5008189;28;20033;-78
2023/01/11 06:53:19;;;;;;;22.30;6.18;;;10.80;99.90;;;;;;5040685;28;20060;-78
2023/01/11 06:55:53;;;;;;;15.02;4.68;;;10.70;99.90;;;;;;5039071;28;20037;-77
2023/01/11 06:58:22;;;;;;;26.70;5.80;;;10.70;99.90;;;;;;5041072;28;20048;-78
2023/01/11 07:00:50;;;;;;;11.88;3.70;;;10.70;99.90;;;;;;5029280;28;20045;-76
2023/01/11 07:03:17;;;;;;;18.90;4.13;;;10.70;99.90;;;;;;5025122;28;20495;-78
2023/01/11 07:05:44;;;;;;;18.85;3.88;;;10.60;99.90;;;;;;5045667;28;20435;-77
2023/01/11 07:08:10;;;;;;;19.50;3.05;;;10.60;99.90;;;;;;5046644;28;20021;-77
2023/01/11 07:10:37;;;;;;;23.20;3.22;;;10.60;99.90;;;;;;5046735;28;20041;-77
2023/01/11 07:13:03;;;;;;;18.70;3.30;;;10.60;99.90;;;;;;5045000;28;20052;-77
2023/01/11 07:15:30;;;;;;;23.00;3.50;;;10.50;99.90;;;;;;5047008;28;20531;-77
2023/01/11 07:17:58;;;;;;;16.77;2.58;;;10.50;99.90;;;;;;5047218;28;20041;-78
2023/01/11 07:20:25;;;;;;;15.82;2.97;;;10.50;99.90;;;;;;5046308;28;20113;-76
2023/01/11 07:22:56;;;;;;;18.95;2.60;;;10.50;99.90;;;;;;5028687;28;20056;-75
2023/01/11 07:25:22;;;;;;;21.67;3.05;;;10.50;99.90;;;;;;5045888;28;20021;-77
2023/01/11 07:27:48;;;;;;;16.13;2.50;;;10.40;99.90;;;;;;5030633;28;20040;-77
2023/01/11 07:30:15;;;;;;;19.85;3.53;;;10.40;99.90;;;;;;5030021;28;20053;-77
2023/01/11 07:32:41;;;;;;;23.83;3.42;;;10.40;99.90;;;;;;5030372;28;20048;-77
2023/01/11 07:35:08;;;;;;;17.38;2.65;;;10.40;99.90;;;;;;5010562;28;20045;-77
2023/01/11 07:37:36;;;;;;;20.63;2.97;;;10.30;99.90;;;;;;5046058;28;20033;-77
2023/01/11 07:40:03;;;;;;;19.27;2.63;;;10.30;99.90;;;;;;5013283;28;20049;-77
2023/01/11 07:45:14;;;;;;;21.67;3.70;;;10.20;99.90;;;;;;5044160;28;20048;-77
2023/01/11 07:47:41;;;;;;;21.48;3.92;;;10.20;99.90;;;;;;5044064;28;20037;-76
2023/01/11 07:50:08;;;;;;;22.20;4.07;;;10.20;99.90;;;;;;5045551;28;20036;-75
2023/01/11 07:52:34;;;;;;;24.67;4.13;;;10.10;99.90;;;;;;5028605;28;20025;-77
2023/01/11 07:55:01;;;;;;;26.75;4.50;;;10.10;99.90;;;;;;5043216;28;20037;-77
2023/01/11 07:57:31;;;;;;;24.92;3.53;;;10.10;99.90;;;;;;5027430;28;20048;-77
2023/01/11 07:59:58;;;;;;;15.80;3.10;;;10.10;99.90;;;;;;5027153;28;20049;-77
2023/01/11 08:02:24;;;;;;;25.50;3.90;;;10.10;99.90;;;;;;5028030;28;20029;-76
2023/01/11 08:04:50;;;;;;;19.42;3.97;;;10.10;99.90;;;;;;5043318;28;20047;-78
2023/01/11 08:07:16;;;;;;;16.48;4.15;;;10.10;99.90;;;;;;5029677;28;20048;-77
2023/01/11 08:09:43;;;;;;;21.33;3.97;;;10.00;99.90;;;;;;5046281;28;20041;-78
2023/01/11 08:14:54;;;;;;;23.13;4.35;;;10.00;99.90;;;;;;5043102;28;20037;-81
2023/01/11 08:17:20;;;;;;;30.05;3.72;;;10.00;99.90;;;;;;5046819;28;20068;-77
2023/01/11 08:19:46;;;;;;;15.93;2.78;;;10.00;99.90;;;;;;5048137;28;20676;-78
2023/01/11 08:22:12;;;;;;;26.17;3.55;;;9.90;99.90;;;;;;5048313;28;20566;-77
2023/01/11 08:24:39;;;;;;;20.13;3.22;;;9.90;99.90;;;;;;5043430;28;20503;-77
2023/01/11 08:27:05;;;;;;;21.95;2.75;;;9.90;99.90;;;;;;5047249;28;20052;-79
2023/01/11 08:29:31;;;;;;;21.02;2.42;;;9.90;99.90;;;;;;5048050;28;20029;-78
2023/01/11 08:31:59;;;;;;;18.42;2.28;;;9.90;99.90;;;;;;5046544;28;20039;-76
2023/01/11 08:34:29;;;;;;;13.52;2.08;;;9.80;99.90;;;;;;5026648;28;20052;-78
2023/01/11 08:36:56;;;;;;;23.90;3.72;;;9.80;99.90;;;;;;5029322;28;20380;-78
2023/01/11 08:39:23;;;;;;;22.20;2.90;;;9.80;99.90;;;;;;5047908;28;20861;-79
2023/01/11 08:41:49;;;;;;;18.08;2.90;;;9.80;99.90;;;;;;5030249;28;20029;-78
2023/01/11 08:44:16;;;;;;;19.20;2.67;;;9.70;99.90;;;;;;5026656;28;20352;-77
2023/01/11 08:46:42;;;;;;;17.02;2.03;;;9.70;99.90;;;;;;5028099;28;20038;-77
2023/01/11 08:49:11;;;;;;;10.07;2.05;;;9.70;99.90;;;;;;5046809;28;20435;-78
2023/01/11 08:51:39;;;;;;;16.45;2.45;;;9.70;99.90;;;;;;5046603;28;20412;-78
2023/01/11 08:54:08;;;;;;;13.23;1.88;;;9.70;99.90;;;;;;5043385;28;20087;-78
2023/01/11 08:56:35;;;;;;;18.67;2.30;;;9.70;99.90;;;;;;5011793;28;20045;-78
2023/01/11 08:59:03;;;;;;;17.33;1.95;;;9.70;99.90;;;;;;5013493;28;20503;-78
2023/01/11 09:01:30;;;;;;;15.57;2.17;;;9.70;99.90;;;;;;5047577;28;20025;-77
2023/01/11 09:03:56;;;;;;;15.70;2.88;;;9.70;99.90;;;;;;5043404;28;20522;-78
2023/01/11 09:06:22;;;;;;;17.55;2.72;;;9.70;99.90;;;;;;5046372;28;20029;-79
2023/01/11 09:08:49;;;;;;;17.00;1.98;;;9.60;99.90;;;;;;5045854;28;20029;-76
2023/01/11 09:14:00;;;;;;;15.00;1.85;;;9.50;99.90;;;;;;5024444;28;20041;-78
2023/01/11 09:16:27;;;;;;;20.98;2.83;;;9.50;99.90;;;;;;5045151;28;20040;-78
2023/01/11 09:18:54;;;;;;;11.57;2.00;;;9.50;99.90;;;;;;5045406;28;20059;-76
2023/01/11 09:21:21;;;;;;;21.80;2.50;;;9.40;99.90;;;;;;5045371;28;20033;-77
2023/01/11 09:23:47;;;;;;;13.48;2.20;;;9.40;99.90;;;;;;5026581;28;20040;-77
2023/01/11 09:26:14;;;;;;;15.77;3.00;;;9.40;99.90;;;;;;5045298;28;20044;-78
2023/01/11 09:28:40;;;;;;;23.58;2.40;;;9.40;99.90;;;;;;5046906;28;20368;-79
2023/01/11 09:31:07;;;;;;;15.00;1.52;;;9.40;99.90;;;;;;5045173;28;20029;-77
2023/01/11 09:33:34;;;;;;;12.60;2.42;;;9.30;99.90;;;;;;5042832;28;20392;-77
2023/01/11 09:36:01;;;;;;;23.40;2.50;;;9.30;99.90;;;;;;5044939;28;20041;-78
2023/01/11 09:38:29;;;;;;;21.17;3.00;;;9.30;99.90;;;;;;5010576;28;20040;-77
2023/01/11 09:41:24;;;;;;;15.75;2.88;;;9.20;99.90;;;;;;5045068;28;20041;-78
2023/01/11 09:44:19;;;;;;;15.73;1.83;;;9.20;99.90;;;;;;5024434;28;20045;-77
2023/01/11 09:46:50;;;;;;;27.13;2.63;;;9.10;99.90;;;;;;5043586;28;20047;-77
2023/01/11 09:49:22;;;;;;;18.98;2.42;;;9.00;99.90;;;;;;5012061;28;20049;-77
2023/01/11 09:51:50;;;;;;;27.30;3.42;;;8.90;99.90;;;;;;5027228;28;20033;-77
2023/01/11 09:54:22;;;;;;;19.73;2.17;;;8.90;99.90;;;;;;5040175;28;20036;-77
2023/01/11 09:57:00;;;;;;;19.05;2.42;;;8.90;99.90;;;;;;5026060;28;20041;-77
2023/01/11 09:59:40;;;;;;;19.25;2.53;;;8.80;99.90;;;;;;5043814;28;20032;-77
2023/01/11 10:02:40;;;;;;;14.75;1.95;;;8.90;99.90;;;;;;5013296;28;20063;-76
2023/01/11 10:05:28;;;;;;;23.13;2.85;;;8.90;99.90;;;;;;5039881;28;20040;-78
2023/01/11 10:08:06;;;;;;;18.08;2.00;;;8.90;99.90;;;;;;5044944;28;20048;-78
2023/01/11 10:10:53;;;;;;;12.75;1.50;;;9.10;99.90;;;;;;5028506;28;20103;-76
2023/01/11 10:13:33;;;;;;;19.00;2.85;;;9.40;99.90;;;;;;5038107;28;20048;-76
2023/01/11 10:16:19;;;;;;;12.32;1.75;;;9.70;99.90;;;;;;5027158;28;20080;-77
2023/01/11 10:18:54;;;;;;;11.55;1.77;;;10.00;99.90;;;;;;5027850;28;20041;-78
2023/01/11 10:21:32;;;;;;;16.98;2.28;;;10.30;99.90;;;;;;5027930;28;20490;-78
2023/01/11 10:24:05;;;;;;;11.32;1.17;;;10.60;99.90;;;;;;5038597;28;20052;-77
2023/01/11 10:26:38;;;;;;;17.58;2.20;;;10.80;99.90;;;;;;5027032;28;20041;-78
2023/01/11 10:29:29;;;;;;;11.07;1.77;;;11.00;99.90;;;;;;5043934;28;20025;-77
2023/01/11 10:37:57;;;;;;;14.23;2.65;;;11.30;99.90;;;;;;5022971;28;20045;-76
2023/01/11 10:41:01;;;;;;;15.52;3.58;;;11.20;99.90;;;;;;5041084;28;20515;-78
2023/01/11 10:43:24;;;;;;;16.95;3.35;;;11.10;99.90;;;;;;5037750;28;20037;-77
2023/01/11 10:46:08;;;;;;;14.30;1.85;;;11.00;99.90;;;;;;5043989;28;20051;-77
2023/01/11 10:48:40;;;;;;;14.32;2.30;;;11.00;99.90;;;;;;5028007;28;20543;-76
2023/01/11 10:51:26;;;;;;;23.02;2.65;;;11.00;99.90;;;;;;5027130;28;20026;-77
2023/01/11 10:54:00;;;;;;;18.67;2.17;;;10.90;99.90;;;;;;5021958;28;20056;-79
2023/01/11 10:56:44;;;;;;;10.20;1.77;;;10.80;99.90;;;;;;5043835;28;20041;-76
2023/01/11 10:59:29;;;;;;;17.17;2.88;;;10.80;99.90;;;;;;5040079;28;20044;-75
2023/01/11 11:02:09;;;;;;;20.38;2.75;;;10.70;99.90;;;;;;5026804;28;20036;-77
2023/01/11 11:04:48;;;;;;;20.05;2.38;;;10.70;99.90;;;;;;5009842;28;20029;-77
2023/01/11 11:07:33;;;;;;;14.93;2.33;;;10.80;99.90;;;;;;5026016;28;20393;-77
2023/01/11 11:10:35;;;;;;;18.85;2.97;;;10.80;99.90;;;;;;5041032;28;20021;-78
2023/01/11 11:13:14;;;;;;;18.08;3.20;;;10.80;99.90;;;;;;5053974;28;20559;-75
2023/01/11 11:15:53;;;;;;;20.40;3.35;;;10.80;99.90;;;;;;5043043;28;20049;-77
2023/01/11 11:18:20;;;;;;;20.85;2.58;;;10.70;99.90;;;;;;5024671;28;20052;-77
2023/01/11 11:20:46;;;;;;;20.08;1.98;;;10.70;99.90;;;;;;5023516;28;20048;-78
2023/01/11 11:23:20;;;;;;;17.20;2.72;;;10.70;99.90;;;;;;5027016;28;20048;-78
2023/01/11 11:26:00;;;;;;;20.17;2.90;;;10.70;99.90;;;;;;5027132;28;20044;-79
2023/01/11 11:28:29;;;;;;;19.77;2.40;;;10.60;99.90;;;;;;5026289;28;20029;-77
2023/01/11 11:30:59;;;;;;;24.77;2.20;;;10.60;99.90;;;;;;5019982;28;20041;-78
2023/01/11 11:33:36;;;;;;;21.25;2.80;;;10.50;99.90;;;;;;5043540;28;20056;-77
2023/01/11 11:36:04;;;;;;;19.23;2.58;;;10.50;99.90;;;;;;5040224;28;20040;-76
2023/01/11 11:38:55;;;;;;;19.58;2.22;;;10.50;99.90;;;;;;5028686;28;20036;-76
2023/01/11 11:41:21;;;;;;;22.13;2.58;;;10.40;99.90;;;;;;5039950;28;20040;-77
2023/01/11 11:43:47;;;;;;;14.63;2.17;;;10.30;99.90;;;;;;5047399;28;20029;-79
2023/01/11 11:46:14;;;;;;;17.88;2.30;;;10.20;99.90;;;;;;5026591;28;20033;-77
2023/01/11 11:48:42;;;;;;;20.65;2.90;;;10.20;99.90;;;;;;5048745;28;20036;-77
2023/01/11 11:51:18;;;;;;;23.73;3.05;;;10.20;99.90;;;;;;5045972;28;20076;-77
2023/01/11 11:53:55;;;;;;;22.23;3.38;;;10.20;99.90;;;;;;5046934;28;20037;-77
2023/01/11 11:56:34;;;;;;;19.35;2.95;;;10.20;99.90;;;;;;5044023;28;20044;-76
2023/01/11 11:59:08;;;;;;;17.10;2.15;;;10.20;99.90;;;;;;5029968;28;20045;-76
2023/01/11 12:01:38;;;;;;;14.65;2.83;;;10.20;99.90;;;;;;5047539;28;20039;-77
2023/01/11 12:04:23;;;;;;;20.02;2.83;;;10.10;99.90;;;;;;5048664;28;20036;-77
2023/01/11 12:07:14;;;;;;;17.85;2.65;;;10.10;99.90;;;;;;5046717;28;20496;-76
2023/01/11 12:09:47;;;;;;;20.98;2.47;;;10.00;99.90;;;;;;5044049;28;20040;-78
2023/01/11 12:12:20;;;;;;;17.35;3.22;;;10.10;99.90;;;;;;5046801;28;20020;-78
2023/01/11 12:15:05;;;;;;;13.02;3.00;;;10.10;99.90;;;;;;5030207;28;20056;-76
2023/01/11 12:17:31;;;;;;;19.60;2.42;;;10.20;99.90;;;;;;5029489;28;20052;-76
2023/01/11 12:19:58;;;;;;;14.27;1.70;;;10.30;99.90;;;;;;5044265;28;20041;-77
2023/01/11 12:22:27;;;;;;;18.33;2.40;;;10.40;99.90;;;;;;5026584;28;20064;-75
2023/01/11 12:25:03;;;;;;;16.63;2.58;;;10.50;99.90;;;;;;5027575;28;20037;-76
2023/01/11 12:28:04;;;;;;;16.52;3.25;;;10.50;99.90;;;;;;5046331;28;20044;-77
2023/01/11 12:30:47;;;;;;;26.50;2.55;;;10.60;99.90;;;;;;5042682;28;20033;-76
2023/01/11 12:33:20;;;;;;;21.58;2.65;;;10.70;99.90;;;;;;5044296;28;20029;-76
2023/01/11 12:36:00;;;;;;;20.02;3.45;;;10.60;99.90;;;;;;5045144;28;20044;-77
2023/01/11 12:38:45;;;;;;;20.20;3.03;;;10.50;99.90;;;;;;5045855;28;20388;-77
2023/01/11 12:41:46;;;;;;;16.90;2.33;;;10.50;99.90;;;;;;5040876;28;20426;-77
2023/01/11 12:44:34;;;;;;;21.30;2.88;;;10.50;99.90;;;;;;5041329;28;20029;-77
2023/01/11 12:47:03;;;;;;;29.55;2.72;;;10.50;99.90;;;;;;5042906;28;20040;-77
2023/01/11 12:49:39;;;;;;;16.60;2.38;;;10.50;99.90;;;;;;5011851;28;20041;-77
2023/01/11 12:52:38;;;;;;;17.17;2.78;;;10.50;99.90;;;;;;5027675;28;20044;-77
2023/01/11 12:55:29;;;;;;;19.92;2.28;;;10.40;99.90;;;;;;5024121;28;20115;-77
2023/01/11 12:58:07;;;;;;;18.48;2.90;;;10.20;99.90;;;;;;5046589;28;20041;-77
2023/01/11 13:00:57;;;;;;;19.98;3.40;;;10.20;99.90;;;;;;5032363;28;20514;-77
2023/01/11 13:03:34;;;;;;;16.33;2.20;;;10.30;99.90;;;;;;5029476;28;20037;-78
2023/01/11 13:06:13;;;;;;;14.65;2.05;;;10.40;99.90;;;;;;5046764;28;20029;-77
2023/01/11 13:08:48;;;;;;;19.38;3.58;;;10.50;99.90;;;;;;5044272;28;20111;-76
2023/01/11 13:11:36;;;;;;;18.15;2.35;;;10.50;99.90;;;;;;5039684;28;20721;-79
2023/01/11 13:14:14;;;;;;;16.90;2.42;;;10.50;99.90;;;;;;5043479;28;20027;-77
2023/01/11 13:16:53;;;;;;;19.90;1.90;;;10.60;99.90;;;;;;5027671;28;20040;-77
2023/01/11 13:19:33;;;;;;;15.63;1.77;;;10.60;99.90;;;;;;5043469;28;20195;-76
2023/01/11 13:22:03;;;;;;;15.98;2.05;;;10.60;99.90;;;;;;5024373;28;20496;-76
2023/01/11 13:24:31;;;;;;;20.77;3.22;;;10.60;99.90;;;;;;5044400;28;20025;-77
2023/01/11 13:27:01;;;;;;;18.25;3.58;;;10.60;99.90;;;;;;5025282;28;20044;-78
2023/01/11 13:29:32;;;;;;;20.88;2.83;;;10.60;99.90;;;;;;5028060;28;20400;-78
2023/01/11 13:32:02;;;;;;;21.30;3.13;;;10.50;99.90;;;;;;5026130;28;20404;-78
2023/01/11 13:34:37;;;;;;;23.45;3.30;;;10.50;99.90;;;;;;5060628;28;20538;-77
2023/01/11 13:37:23;;;;;;;18.20;2.33;;;10.50;99.90;;;;;;5038185;28;20048;-76
2023/01/11 13:40:02;;;;;;;21.17;4.05;;;10.50;99.90;;;;;;5046143;28;20041;-77
2023/01/11 13:42:35;;;;;;;17.92;2.55;;;10.60;99.90;;;;;;5037117;28;21033;-79
2023/01/11 13:45:04;;;;;;;;;;;10.50;99.90;;;;;;5035761;28;20045;-78